createdAt,value
2023-03-04T00:02:25.381Z,26.75
2023-03-04T00:05:27.731Z,25.10
2023-03-04T00:08:29.516Z,25.67
2023-03-04T00:11:32.883Z,25.65
2023-03-04T00:17:36.277Z,25.40
2023-03-04T00:20:38.315Z,25.70
2023-03-04T00:23:41.398Z,24.95
2023-03-04T00:26:43.851Z,24.63
2023-03-04T00:29:45.692Z,24.97
2023-03-04T00:32:47.566Z,23.73
2023-03-04T00:35:49.484Z,24.60
2023-03-04T00:38:51.298Z,25.75
2023-03-04T00:41:53.291Z,24.25
2023-03-04T00:44:55.134Z,23.77
2023-03-04T00:47:56.908Z,24.10
2023-03-04T00:50:58.669Z,23.33
2023-03-04T00:54:01.046Z,24.30
2023-03-04T00:57:03.194Z,23.00
2023-03-04T01:00:05.793Z,23.17
2023-03-04T01:03:07.609Z,24.70
2023-03-04T01:06:09.986Z,24.05
2023-03-04T01:09:12.061Z,24.73
2023-03-04T01:12:14.079Z,24.13
2023-03-04T01:15:15.872Z,22.30
2023-03-04T01:18:17.738Z,24.85
2023-03-04T01:21:19.496Z,26.02
2023-03-04T01:24:21.286Z,24.65
2023-03-04T01:27:23.268Z,23.17
2023-03-04T01:30:25.215Z,22.88
2023-03-04T01:33:27.220Z,20.65
2023-03-04T01:36:29.089Z,20.58
2023-03-04T01:39:30.905Z,20.55
2023-03-04T01:42:35.447Z,21.63
2023-03-04T01:45:39.988Z,21.05
2023-03-04T01:48:42.367Z,21.50
2023-03-04T01:51:49.158Z,19.48
2023-03-04T01:54:51.139Z,19.15
2023-03-04T01:57:54.147Z,20.60
2023-03-04T02:00:57.564Z,19.98
2023-03-04T02:03:59.887Z,19.38
2023-03-04T02:07:03.997Z,18.85
2023-03-04T02:10:06.260Z,17.85
2023-03-04T02:13:08.531Z,17.73
2023-03-04T02:16:10.640Z,18.20
2023-03-04T02:19:30.652Z,18.17
2023-03-04T02:22:35.777Z,16.55
2023-03-04T02:25:46.630Z,17.17
2023-03-04T02:28:50.619Z,16.58
2023-03-04T02:31:54.534Z,17.92
2023-03-04T02:34:56.805Z,16.83
2023-03-04T02:37:58.656Z,17.02
2023-03-04T02:41:00.969Z,17.05
2023-03-04T02:44:03.328Z,18.40
2023-03-04T02:47:07.653Z,16.70
2023-03-04T02:50:10.400Z,16.20
2023-03-04T02:53:12.468Z,15.77
2023-03-04T02:56:14.279Z,16.17
2023-03-04T02:59:16.962Z,16.90
2023-03-04T03:02:18.881Z,15.65
2023-03-04T03:05:21.683Z,15.18
2023-03-04T03:08:24.367Z,14.00
2023-03-04T03:11:26.806Z,13.80
2023-03-04T03:14:28.701Z,14.47
2023-03-04T03:17:30.739Z,14.10
2023-03-04T03:20:32.649Z,13.63
2023-03-04T03:23:35.412Z,13.48
2023-03-04T03:26:37.226Z,13.73
2023-03-04T03:29:39.051Z,14.23
2023-03-04T03:32:40.970Z,13.20
2023-03-04T03:35:42.945Z,13.23
2023-03-04T03:38:46.117Z,13.18
2023-03-04T03:41:48.288Z,13.57
2023-03-04T03:44:50.446Z,12.77
2023-03-04T03:47:52.216Z,12.38
2023-03-04T03:50:53.985Z,11.80
2023-03-04T03:53:55.827Z,12.05
2023-03-04T03:56:57.891Z,12.75
2023-03-04T03:59:59.739Z,12.77
2023-03-04T04:03:01.963Z,12.25
2023-03-04T04:06:04.055Z,12.35
2023-03-04T04:09:06.024Z,11.90
2023-03-04T04:12:08.436Z,11.70
2023-03-04T04:15:12.753Z,11.32
2023-03-04T04:18:14.610Z,9.95
2023-03-04T04:21:16.455Z,9.10
2023-03-04T04:24:18.293Z,12.52
2023-03-04T04:27:20.352Z,12.48
2023-03-04T04:30:22.199Z,10.57
2023-03-04T04:33:24.233Z,10.57
2023-03-04T04:36:26.949Z,9.38
2023-03-04T04:39:28.882Z,7.25
2023-03-04T04:42:31.068Z,8.05
2023-03-04T04:45:32.842Z,6.55
2023-03-04T04:48:34.623Z,7.45
2023-03-04T04:51:38.698Z,7.43
2023-03-04T04:54:40.487Z,8.30
2023-03-04T04:57:42.264Z,8.30
2023-03-04T05:00:44.322Z,8.48
2023-03-04T05:03:46.393Z,9.75
2023-03-04T05:06:48.341Z,8.05
2023-03-04T05:09:50.183Z,8.90
2023-03-04T05:12:52.003Z,8.35
2023-03-04T05:15:56.411Z,8.27
2023-03-04T05:18:58.190Z,9.18
2023-03-04T05:22:00.193Z,8.30
2023-03-04T05:25:02.229Z,8.32
2023-03-04T05:28:05.024Z,7.28
2023-03-04T05:31:07.425Z,6.38
2023-03-04T05:34:09.412Z,5.73
2023-03-04T05:37:11.229Z,6.72
2023-03-04T05:40:13.577Z,5.60
2023-03-04T05:43:16.322Z,5.50
2023-03-04T05:46:19.319Z,5.25
2023-03-04T05:49:21.196Z,6.68
2023-03-04T05:52:22.958Z,6.22
2023-03-04T05:55:25.583Z,6.88
2023-03-04T05:58:27.506Z,6.10
2023-03-04T06:01:30.301Z,5.88
2023-03-04T06:07:50.199Z,6.03
2023-03-04T06:10:55.203Z,5.80
2023-03-04T06:13:57.142Z,5.63
2023-03-04T06:16:58.986Z,4.97
2023-03-04T06:20:00.873Z,4.85
2023-03-04T06:23:03.710Z,5.18
2023-03-04T06:26:09.328Z,3.58
2023-03-04T06:29:11.568Z,5.03
2023-03-04T06:32:13.576Z,4.82
2023-03-04T06:35:16.611Z,4.80
2023-03-04T06:38:18.393Z,5.30
2023-03-04T06:41:20.334Z,5.90
2023-03-04T06:44:22.290Z,4.80
2023-03-04T06:47:24.111Z,5.80
2023-03-04T06:50:25.928Z,5.80
2023-03-04T06:53:27.703Z,6.43
2023-03-04T06:56:29.550Z,5.63
2023-03-04T06:59:31.645Z,5.53
2023-03-04T07:02:33.757Z,5.18
2023-03-04T07:05:36.091Z,6.07
2023-03-04T07:08:38.226Z,6.30
2023-03-04T07:11:40.266Z,5.90
2023-03-04T07:14:42.207Z,6.10
2023-03-04T07:17:43.963Z,6.13
2023-03-04T07:20:45.923Z,5.70
2023-03-04T07:23:47.978Z,5.22
2023-03-04T07:26:50.017Z,4.68
2023-03-04T07:29:51.799Z,4.65
2023-03-04T07:32:54.106Z,4.63
2023-03-04T07:36:00.027Z,4.20
2023-03-04T07:39:02.285Z,3.95
2023-03-04T07:42:04.205Z,4.18
2023-03-04T07:45:06.976Z,4.15
2023-03-04T07:48:09.000Z,4.45
2023-03-04T07:51:12.515Z,4.47
2023-03-04T07:54:14.590Z,4.03
2023-03-04T07:57:16.456Z,3.55
2023-03-04T08:00:18.776Z,3.42
2023-03-04T08:03:29.673Z,4.13
2023-03-04T08:06:32.785Z,4.28
2023-03-04T08:09:34.843Z,3.92
2023-03-04T08:12:37.096Z,3.47
2023-03-04T08:15:43.528Z,3.90
2023-03-04T08:18:48.240Z,3.72
2023-03-04T08:21:50.453Z,3.63
2023-03-04T08:24:52.312Z,3.85
2023-03-04T08:27:54.140Z,3.83
2023-03-04T08:30:56.799Z,3.75
2023-03-04T08:33:58.714Z,3.67
2023-03-04T08:37:00.558Z,3.97
2023-03-04T08:40:02.473Z,3.22
2023-03-04T08:43:04.555Z,3.28
2023-03-04T08:46:06.553Z,3.72
2023-03-04T08:49:10.662Z,3.67
2023-03-04T08:52:12.909Z,3.55
2023-03-04T08:55:14.734Z,4.32
2023-03-04T08:58:16.752Z,8.90
2023-03-04T09:01:18.678Z,3.97
2023-03-04T09:04:20.599Z,3.67
2023-03-04T09:07:22.681Z,3.15
2023-03-04T09:10:25.521Z,3.28
2023-03-04T09:13:29.998Z,3.45
2023-03-04T09:16:34.924Z,2.47
2023-03-04T09:19:37.736Z,7.40
2023-03-04T09:22:41.261Z,3.13
2023-03-04T09:25:43.907Z,2.85
2023-03-04T09:28:45.895Z,2.25
2023-03-04T09:31:48.086Z,2.50
2023-03-04T09:34:50.100Z,2.83
2023-03-04T09:37:52.907Z,5.22
2023-03-04T09:40:54.854Z,3.22
2023-03-04T09:43:57.720Z,3.13
2023-03-04T09:47:03.419Z,2.90
2023-03-04T09:50:10.029Z,2.72
2023-03-04T09:53:25.860Z,2.95
2023-03-04T09:56:28.349Z,2.83
2023-03-04T09:59:43.711Z,2.50
2023-03-04T10:03:00.047Z,2.80
2023-03-04T10:06:07.460Z,2.40
2023-03-04T10:09:18.526Z,2.85
2023-03-04T10:12:25.643Z,2.47
2023-03-04T10:15:48.432Z,2.60
2023-03-04T10:18:58.863Z,2.72
2023-03-04T10:22:01.780Z,2.50
2023-03-04T10:25:19.432Z,2.90
2023-03-04T10:28:27.089Z,2.78
2023-03-04T10:31:37.517Z,2.35
2023-03-04T10:34:39.417Z,1.75
2023-03-04T10:37:50.151Z,2.03
2023-03-04T10:40:52.037Z,2.00
2023-03-04T10:44:09.065Z,1.75
2023-03-04T10:47:12.028Z,1.88
2023-03-04T10:50:23.275Z,2.45
2023-03-04T10:53:37.669Z,2.42
2023-03-04T10:56:52.856Z,2.60
2023-03-04T10:59:59.874Z,2.80
2023-03-04T11:03:23.627Z,2.28
2023-03-04T11:09:31.484Z,3.65
2023-03-04T11:12:35.188Z,2.53
2023-03-04T11:15:56.194Z,2.72
2023-03-04T11:19:06.699Z,2.55
2023-03-04T11:22:14.641Z,3.90
2023-03-04T11:25:36.715Z,3.33
2023-03-04T11:28:56.739Z,3.30
2023-03-04T11:32:01.374Z,2.22
2023-03-04T11:35:35.369Z,3.10
2023-03-04T11:38:42.227Z,2.03
2023-03-04T11:41:58.568Z,2.28
2023-03-04T11:45:00.740Z,2.00
2023-03-04T11:48:27.743Z,2.00
2023-03-04T11:51:40.669Z,1.92
2023-03-04T11:55:00.992Z,2.08
2023-03-04T11:58:19.312Z,1.83
2023-03-04T12:01:39.207Z,1.73
2023-03-04T12:05:19.589Z,2.03
2023-03-04T12:08:42.770Z,1.85
2023-03-04T12:11:59.891Z,1.70
2023-03-04T12:15:10.726Z,2.13
2023-03-04T12:18:39.757Z,1.48
2023-03-04T12:22:07.016Z,2.47
2023-03-04T12:25:37.888Z,2.13
2023-03-04T12:28:52.557Z,2.53
2023-03-04T12:31:59.239Z,2.75
2023-03-04T12:35:12.867Z,3.10
2023-03-04T12:41:58.206Z,3.38
2023-03-04T12:45:08.931Z,3.67
2023-03-04T12:48:25.674Z,4.45
2023-03-04T12:51:43.465Z,4.40
2023-03-04T12:54:58.255Z,3.83
2023-03-04T12:58:00.169Z,4.00
2023-03-04T13:01:25.930Z,4.63
2023-03-04T13:04:50.585Z,4.75
2023-03-04T13:08:12.116Z,3.63
2023-03-04T13:11:26.200Z,3.72
2023-03-04T13:14:30.107Z,3.95
2023-03-04T13:17:41.528Z,3.58
2023-03-04T13:20:45.395Z,3.85
2023-03-04T13:23:47.280Z,4.25
2023-03-04T13:26:49.120Z,4.35
2023-03-04T13:29:50.924Z,4.38
2023-03-04T13:32:52.929Z,4.13
2023-03-04T13:36:04.363Z,4.20
2023-03-04T13:39:15.179Z,4.45
2023-03-04T13:42:44.262Z,5.03
2023-03-04T13:45:46.238Z,4.40
2023-03-04T13:48:51.474Z,5.05
2023-03-04T13:51:53.746Z,4.43
2023-03-04T13:55:35.548Z,5.15
2023-03-04T13:58:39.209Z,5.22
2023-03-04T14:01:44.013Z,4.65
2023-03-04T14:04:54.680Z,5.00
2023-03-04T14:07:56.909Z,4.38
2023-03-04T14:10:58.999Z,4.93
2023-03-04T14:14:07.768Z,4.53
2023-03-04T14:17:19.185Z,4.88
2023-03-04T14:20:51.305Z,5.00
2023-03-04T14:24:14.073Z,5.22
2023-03-04T14:27:15.852Z,5.15
2023-03-04T14:30:41.715Z,4.88
2023-03-04T14:33:47.430Z,5.30
2023-03-04T14:36:49.497Z,5.43
2023-03-04T14:39:56.268Z,5.05
2023-03-04T14:43:05.563Z,5.07
2023-03-04T14:46:13.260Z,5.53
2023-03-04T14:49:16.191Z,8.63
2023-03-04T14:52:53.812Z,8.18
2023-03-04T14:55:56.528Z,6.93
2023-03-04T14:58:59.517Z,7.07
2023-03-04T15:02:19.921Z,6.90
2023-03-04T15:05:30.423Z,6.82
2023-03-04T15:08:38.456Z,7.78
2023-03-04T15:12:02.008Z,7.70
2023-03-04T15:15:43.567Z,9.80
2023-03-04T15:18:57.002Z,6.80
2023-03-04T15:22:08.252Z,7.88
2023-03-04T15:25:15.272Z,7.35
2023-03-04T15:28:21.306Z,7.32
2023-03-04T15:31:25.837Z,6.90
2023-03-04T15:34:27.837Z,6.38
2023-03-04T15:37:30.074Z,6.22
2023-03-04T15:40:44.816Z,5.78
2023-03-04T15:43:46.972Z,6.97
2023-03-04T15:46:48.832Z,6.90
2023-03-04T15:49:51.758Z,6.53
2023-03-04T15:52:57.425Z,5.10
2023-03-04T15:56:00.431Z,5.47
2023-03-04T15:59:09.380Z,5.13
2023-03-04T16:02:27.531Z,5.10
2023-03-04T16:05:29.513Z,4.60
2023-03-04T16:08:32.359Z,4.15
2023-03-04T16:11:39.348Z,4.55
2023-03-04T16:14:42.428Z,4.63
2023-03-04T16:17:44.926Z,4.80
2023-03-04T16:20:49.182Z,3.33
2023-03-04T16:23:52.450Z,4.30
2023-03-04T16:26:54.315Z,4.57
2023-03-04T16:29:56.068Z,4.30
2023-03-04T16:32:58.077Z,5.20
2023-03-04T16:36:00.122Z,5.15
2023-03-04T16:39:07.951Z,4.90
2023-03-04T16:42:16.615Z,5.65
2023-03-04T16:45:21.066Z,5.07
2023-03-04T16:48:23.000Z,4.78
2023-03-04T16:51:24.900Z,5.38
2023-03-04T16:54:30.543Z,5.30
2023-03-04T16:57:32.361Z,5.63
2023-03-04T17:00:34.376Z,5.78
2023-03-04T17:03:36.183Z,8.60
2023-03-04T17:06:39.824Z,12.35
2023-03-04T17:09:41.937Z,18.65
2023-03-04T17:12:43.989Z,10.30
2023-03-04T17:15:46.950Z,8.13
2023-03-04T17:18:49.036Z,7.05
2023-03-04T17:21:50.890Z,6.90
2023-03-04T17:24:52.684Z,7.15
2023-03-04T17:27:54.726Z,7.00
2023-03-04T17:30:56.682Z,7.38
2023-03-04T17:33:58.526Z,7.50
2023-03-04T17:37:00.368Z,7.50
2023-03-04T17:40:04.700Z,7.82
2023-03-04T17:43:11.442Z,7.18
2023-03-04T17:46:14.825Z,7.82
2023-03-04T17:52:19.286Z,8.65
2023-03-04T17:55:21.210Z,8.30
2023-03-04T17:58:23.993Z,10.25
2023-03-04T18:01:26.757Z,11.27
2023-03-04T18:04:28.520Z,11.57
2023-03-04T18:07:30.748Z,11.15
2023-03-04T18:10:33.088Z,11.75
2023-03-04T18:13:37.140Z,12.38
2023-03-04T18:16:39.695Z,11.93
2023-03-04T18:19:42.333Z,12.82
2023-03-04T18:22:44.747Z,11.93
2023-03-04T18:25:46.729Z,12.18
2023-03-04T18:28:48.603Z,14.35
2023-03-04T18:31:50.607Z,14.07
2023-03-04T18:34:52.571Z,12.85
2023-03-04T18:37:54.802Z,13.15
2023-03-04T18:41:01.366Z,12.05
2023-03-04T18:44:03.390Z,13.07
2023-03-04T18:47:06.871Z,11.80
2023-03-04T18:50:09.986Z,11.57
2023-03-04T18:53:11.931Z,11.75
2023-03-04T18:56:21.640Z,11.63
2023-03-04T18:59:37.696Z,13.05
2023-03-04T19:03:04.223Z,13.65
2023-03-04T19:06:07.490Z,14.57
2023-03-04T19:09:09.580Z,14.35
2023-03-04T19:12:12.294Z,14.70
2023-03-04T19:15:15.598Z,14.30
2023-03-04T19:18:17.699Z,12.60
2023-03-04T19:21:19.825Z,11.98
2023-03-04T19:24:21.906Z,12.18
2023-03-04T19:27:24.266Z,12.32
2023-03-04T19:30:26.222Z,13.10
2023-03-04T19:33:28.311Z,13.00
2023-03-04T19:36:30.959Z,13.43
2023-03-04T19:39:32.954Z,16.30
2023-03-04T19:42:35.183Z,16.05
2023-03-04T19:45:37.097Z,14.52
2023-03-04T19:48:39.929Z,13.35
2023-03-04T19:51:41.944Z,12.70
2023-03-04T19:54:43.916Z,13.48
2023-03-04T19:57:45.787Z,13.75
2023-03-04T20:00:47.888Z,12.93
2023-03-04T20:03:49.829Z,12.00
2023-03-04T20:06:52.459Z,11.95
2023-03-04T20:09:57.852Z,11.35
2023-03-04T20:12:59.707Z,7.65
2023-03-04T20:16:01.757Z,4.57
2023-03-04T20:19:04.227Z,4.82
2023-03-04T20:22:07.046Z,4.63
2023-03-04T20:25:09.501Z,6.10
2023-03-04T20:28:11.386Z,5.18
2023-03-04T20:31:28.180Z,4.00
2023-03-04T20:34:29.981Z,6.13
2023-03-04T20:37:32.244Z,5.93
2023-03-04T20:40:36.059Z,3.47
2023-03-04T20:43:38.044Z,9.15
2023-03-04T20:46:43.643Z,5.00
2023-03-04T20:49:45.506Z,3.42
2023-03-04T20:52:48.344Z,3.13
2023-03-04T20:55:50.322Z,5.80
2023-03-04T20:58:53.469Z,6.50
2023-03-04T21:01:55.469Z,11.98
2023-03-04T21:04:57.622Z,3.50
2023-03-04T21:07:59.490Z,3.20
2023-03-04T21:11:02.564Z,2.47
2023-03-04T21:14:04.319Z,2.80
2023-03-04T21:17:06.184Z,2.63
2023-03-04T21:20:08.986Z,2.47
2023-03-04T21:23:11.090Z,2.75
2023-03-04T21:26:12.952Z,2.90
2023-03-04T21:29:20.299Z,2.65
2023-03-04T21:32:27.375Z,2.38
2023-03-04T21:35:29.562Z,3.53
2023-03-04T21:38:31.505Z,2.92
2023-03-04T21:41:33.361Z,2.40
2023-03-04T21:44:48.575Z,2.53
2023-03-04T21:47:51.600Z,2.97
2023-03-04T21:50:54.307Z,3.28
2023-03-04T21:53:56.333Z,3.42
2023-03-04T21:56:58.312Z,4.28
2023-03-04T22:00:00.385Z,3.10
2023-03-04T22:03:02.647Z,3.20
2023-03-04T22:06:06.448Z,2.65
2023-03-04T22:09:09.697Z,3.13
2023-03-04T22:12:11.748Z,2.45
2023-03-04T22:15:13.608Z,2.70
2023-03-04T22:18:15.905Z,3.63
2023-03-04T22:21:19.620Z,3.40
2023-03-04T22:24:23.129Z,4.18
2023-03-04T22:27:25.010Z,5.05
2023-03-04T22:30:27.114Z,3.67
2023-03-04T22:33:29.717Z,2.83
2023-03-04T22:36:36.931Z,2.47
2023-03-04T22:39:38.980Z,4.13
2023-03-04T22:42:42.508Z,2.67
2023-03-04T22:45:44.618Z,2.80
2023-03-04T22:48:46.698Z,2.97
2023-03-04T22:51:48.476Z,2.95
2023-03-04T22:54:50.499Z,3.47
2023-03-04T22:57:52.468Z,3.53
2023-03-04T23:00:54.449Z,3.80
2023-03-04T23:03:56.411Z,3.90
2023-03-04T23:06:58.671Z,4.15
2023-03-04T23:10:01.485Z,3.42
2023-03-04T23:13:03.441Z,3.40
2023-03-04T23:16:08.123Z,4.38
2023-03-04T23:19:14.861Z,4.13
2023-03-04T23:22:16.893Z,3.47
2023-03-04T23:25:18.857Z,3.88
2023-03-04T23:28:20.800Z,3.80
2023-03-04T23:31:23.125Z,3.63
2023-03-04T23:34:25.644Z,3.53
2023-03-04T23:37:27.604Z,3.77
2023-03-04T23:40:29.499Z,4.30
2023-03-04T23:43:33.299Z,3.60
2023-03-04T23:46:37.806Z,3.58
2023-03-04T23:49:40.007Z,3.60
2023-03-04T23:52:44.058Z,3.60
2023-03-04T23:55:46.695Z,3.65
2023-03-04T23:58:49.048Z,3.40
